sensor_id;sensor_type;location;lat;lon;timestamp;P1;durP1;ratioP1;P2;durP2;ratioP2
40837;SDS011;29632;49.168;9.848;2022-07-01T00:01:37;1.53;;;1.07;;
40837;SDS011;29632;49.168;9.848;2022-07-01T00:04:03;1.50;;;1.07;;
40837;SDS011;29632;49.168;9.848;2022-07-01T00:06:29;0.93;;;0.70;;
40837;SDS011;29632;49.168;9.848;2022-07-01T00:08:55;1.67;;;0.70;;
40837;SDS011;29632;49.168;9.848;2022-07-01T00:11:21;0.73;;;0.60;;
40837;SDS011;29632;49.168;9.848;2022-07-01T00:13:46;0.87;;;0.60;;
40837;SDS011;29632;49.168;9.848;2022-07-01T00:16:12;0.97;;;0.63;;
40837;SDS011;29632;49.168;9.848;2022-07-01T00:18:38;2.00;;;0.77;;
40837;SDS011;29632;49.168;9.848;2022-07-01T00:21:04;2.90;;;0.90;;
40837;SDS011;29632;49.168;9.848;2022-07-01T00:23:29;2.53;;;0.80;;
40837;SDS011;29632;49.168;9.848;2022-07-01T00:25:56;0.80;;;0.60;;
40837;SDS011;29632;49.168;9.848;2022-07-01T00:28:22;1.63;;;0.60;;
40837;SDS011;29632;49.168;9.848;2022-07-01T00:30:48;0.90;;;0.70;;
40837;SDS011;29632;49.168;9.848;2022-07-01T00:33:14;1.03;;;0.67;;
40837;SDS011;29632;49.168;9.848;2022-07-01T00:35:39;0.87;;;0.57;;
40837;SDS011;29632;49.168;9.848;2022-07-01T00:38:05;5.53;;;1.53;;
40837;SDS011;29632;49.168;9.848;2022-07-01T00:40:31;1.07;;;0.43;;
40837;SDS011;29632;49.168;9.848;2022-07-01T00:42:57;0.87;;;0.43;;
40837;SDS011;29632;49.168;9.848;2022-07-01T00:45:22;3.50;;;0.90;;
40837;SDS011;29632;49.168;9.848;2022-07-01T00:47:48;1.30;;;0.40;;
40837;SDS011;29632;49.168;9.848;2022-07-01T00:50:15;2.80;;;0.60;;
40837;SDS011;29632;49.168;9.848;2022-07-01T00:52:43;3.17;;;0.60;;
40837;SDS011;29632;49.168;9.848;2022-07-01T00:55:10;2.03;;;0.63;;
40837;SDS011;29632;49.168;9.848;2022-07-01T00:57:38;1.27;;;0.60;;
40837;SDS011;29632;49.168;9.848;2022-07-01T01:00:07;2.03;;;0.97;;
40837;SDS011;29632;49.168;9.848;2022-07-01T01:02:51;2.67;;;0.80;;
40837;SDS011;29632;49.168;9.848;2022-07-01T01:05:17;2.20;;;0.80;;
40837;SDS011;29632;49.168;9.848;2022-07-01T01:07:43;0.80;;;0.60;;
40837;SDS011;29632;49.168;9.848;2022-07-01T01:10:09;1.23;;;0.73;;
40837;SDS011;29632;49.168;9.848;2022-07-01T01:12:35;1.97;;;0.70;;
40837;SDS011;29632;49.168;9.848;2022-07-01T01:15:01;1.77;;;0.80;;
40837;SDS011;29632;49.168;9.848;2022-07-01T01:17:27;1.67;;;0.60;;
40837;SDS011;29632;49.168;9.848;2022-07-01T01:19:53;0.80;;;0.60;;
40837;SDS011;29632;49.168;9.848;2022-07-01T01:22:19;1.57;;;1.17;;
40837;SDS011;29632;49.168;9.848;2022-07-01T01:24:45;1.93;;;0.60;;
40837;SDS011;29632;49.168;9.848;2022-07-01T01:27:15;2.10;;;0.60;;
40837;SDS011;29632;49.168;9.848;2022-07-01T01:29:43;2.53;;;0.70;;
40837;SDS011;29632;49.168;9.848;2022-07-01T01:32:09;4.30;;;0.80;;
40837;SDS011;29632;49.168;9.848;2022-07-01T01:34:36;4.63;;;0.87;;
40837;SDS011;29632;49.168;9.848;2022-07-01T01:37:05;3.07;;;0.57;;
40837;SDS011;29632;49.168;9.848;2022-07-01T01:39:32;1.57;;;0.60;;
40837;SDS011;29632;49.168;9.848;2022-07-01T01:42:01;1.60;;;0.90;;
40837;SDS011;29632;49.168;9.848;2022-07-01T01:44:29;2.60;;;0.50;;
40837;SDS011;29632;49.168;9.848;2022-07-01T01:46:54;0.60;;;0.50;;
40837;SDS011;29632;49.168;9.848;2022-07-01T01:49:20;1.07;;;0.43;;
40837;SDS011;29632;49.168;9.848;2022-07-01T01:51:46;1.10;;;0.40;;
40837;SDS011;29632;49.168;9.848;2022-07-01T01:54:11;0.40;;;0.30;;
40837;SDS011;29632;49.168;9.848;2022-07-01T01:56:37;1.10;;;0.30;;
40837;SDS011;29632;49.168;9.848;2022-07-01T01:59:03;0.67;;;0.43;;
40837;SDS011;29632;49.168;9.848;2022-07-01T02:01:29;0.70;;;0.30;;
40837;SDS011;29632;49.168;9.848;2022-07-01T02:03:55;1.60;;;0.30;;
40837;SDS011;29632;49.168;9.848;2022-07-01T02:06:22;0.43;;;0.30;;
40837;SDS011;29632;49.168;9.848;2022-07-01T02:08:48;0.87;;;0.37;;
40837;SDS011;29632;49.168;9.848;2022-07-01T02:11:14;1.47;;;0.30;;
40837;SDS011;29632;49.168;9.848;2022-07-01T02:13:40;1.27;;;0.40;;
40837;SDS011;29632;49.168;9.848;2022-07-01T02:16:06;0.30;;;0.30;;
40837;SDS011;29632;49.168;9.848;2022-07-01T02:18:31;1.50;;;0.40;;
40837;SDS011;29632;49.168;9.848;2022-07-01T02:20:58;0.60;;;0.30;;
40837;SDS011;29632;49.168;9.848;2022-07-01T02:23:24;2.33;;;0.43;;
40837;SDS011;29632;49.168;9.848;2022-07-01T02:25:50;0.40;;;0.40;;
40837;SDS011;29632;49.168;9.848;2022-07-01T02:28:16;0.57;;;0.47;;
40837;SDS011;29632;49.168;9.848;2022-07-01T02:30:42;2.13;;;0.40;;
40837;SDS011;29632;49.168;9.848;2022-07-01T02:33:08;0.90;;;0.47;;
40837;SDS011;29632;49.168;9.848;2022-07-01T02:35:38;3.77;;;0.60;;
40837;SDS011;29632;49.168;9.848;2022-07-01T02:38:05;1.07;;;0.47;;
40837;SDS011;29632;49.168;9.848;2022-07-01T02:40:33;1.30;;;0.80;;
40837;SDS011;29632;49.168;9.848;2022-07-01T02:43:03;1.40;;;0.50;;
40837;SDS011;29632;49.168;9.848;2022-07-01T02:45:29;1.00;;;0.60;;
40837;SDS011;29632;49.168;9.848;2022-07-01T02:47:55;0.87;;;0.50;;
40837;SDS011;29632;49.168;9.848;2022-07-01T02:50:20;1.27;;;0.50;;
40837;SDS011;29632;49.168;9.848;2022-07-01T02:52:46;1.43;;;0.50;;
40837;SDS011;29632;49.168;9.848;2022-07-01T02:55:13;1.10;;;0.60;;
40837;SDS011;29632;49.168;9.848;2022-07-01T02:57:39;1.10;;;0.50;;
40837;SDS011;29632;49.168;9.848;2022-07-01T03:00:08;0.97;;;0.43;;
40837;SDS011;29632;49.168;9.848;2022-07-01T03:05:03;0.40;;;0.40;;
40837;SDS011;29632;49.168;9.848;2022-07-01T03:07:30;1.23;;;0.40;;
40837;SDS011;29632;49.168;9.848;2022-07-01T03:09:56;1.17;;;0.53;;
40837;SDS011;29632;49.168;9.848;2022-07-01T03:12:22;1.17;;;0.50;;
40837;SDS011;29632;49.168;9.848;2022-07-01T03:14:54;1.03;;;0.57;;
40837;SDS011;29632;49.168;9.848;2022-07-01T03:17:30;0.30;;;0.30;;
40837;SDS011;29632;49.168;9.848;2022-07-01T03:19:58;2.60;;;0.40;;
40837;SDS011;29632;49.168;9.848;2022-07-01T03:22:25;1.20;;;0.33;;
40837;SDS011;29632;49.168;9.848;2022-07-01T03:24:53;0.60;;;0.40;;
40837;SDS011;29632;49.168;9.848;2022-07-01T03:27:20;1.07;;;0.30;;
40837;SDS011;29632;49.168;9.848;2022-07-01T03:29:46;0.60;;;0.47;;
40837;SDS011;29632;49.168;9.848;2022-07-01T03:32:13;0.33;;;0.30;;
40837;SDS011;29632;49.168;9.848;2022-07-01T03:34:39;0.67;;;0.50;;
40837;SDS011;29632;49.168;9.848;2022-07-01T03:37:11;1.23;;;0.60;;
40837;SDS011;29632;49.168;9.848;2022-07-01T03:39:38;0.77;;;0.50;;
40837;SDS011;29632;49.168;9.848;2022-07-01T03:42:04;1.90;;;0.80;;
40837;SDS011;29632;49.168;9.848;2022-07-01T03:44:33;1.33;;;0.60;;
40837;SDS011;29632;49.168;9.848;2022-07-01T03:46:59;0.50;;;0.50;;
40837;SDS011;29632;49.168;9.848;2022-07-01T03:49:26;1.50;;;0.37;;
40837;SDS011;29632;49.168;9.848;2022-07-01T03:51:52;1.23;;;0.50;;
40837;SDS011;29632;49.168;9.848;2022-07-01T03:54:18;0.50;;;0.33;;
40837;SDS011;29632;49.168;9.848;2022-07-01T03:57:04;1.03;;;0.70;;
40837;SDS011;29632;49.168;9.848;2022-07-01T03:59:38;0.60;;;0.40;;
40837;SDS011;29632;49.168;9.848;2022-07-01T04:02:05;0.80;;;0.40;;
40837;SDS011;29632;49.168;9.848;2022-07-01T04:04:32;0.30;;;0.30;;
40837;SDS011;29632;49.168;9.848;2022-07-01T04:07:00;2.27;;;0.67;;
40837;SDS011;29632;49.168;9.848;2022-07-01T04:09:29;1.63;;;0.40;;
40837;SDS011;29632;49.168;9.848;2022-07-01T04:11:55;0.87;;;0.50;;
40837;SDS011;29632;49.168;9.848;2022-07-01T04:14:22;0.40;;;0.40;;
40837;SDS011;29632;49.168;9.848;2022-07-01T04:16:51;0.70;;;0.40;;
40837;SDS011;29632;49.168;9.848;2022-07-01T04:19:18;0.60;;;0.50;;
40837;SDS011;29632;49.168;9.848;2022-07-01T04:21:44;0.73;;;0.43;;
40837;SDS011;29632;49.168;9.848;2022-07-01T04:24:28;1.73;;;0.57;;
40837;SDS011;29632;49.168;9.848;2022-07-01T04:26:57;1.47;;;0.70;;
40837;SDS011;29632;49.168;9.848;2022-07-01T04:29:24;0.70;;;0.50;;
40837;SDS011;29632;49.168;9.848;2022-07-01T04:31:50;0.67;;;0.50;;
40837;SDS011;29632;49.168;9.848;2022-07-01T04:34:16;1.33;;;0.70;;
40837;SDS011;29632;49.168;9.848;2022-07-01T04:36:43;1.37;;;0.63;;
40837;SDS011;29632;49.168;9.848;2022-07-01T04:39:08;2.43;;;0.60;;
40837;SDS011;29632;49.168;9.848;2022-07-01T04:41:34;1.23;;;0.63;;
40837;SDS011;29632;49.168;9.848;2022-07-01T04:44:18;1.37;;;0.70;;
40837;SDS011;29632;49.168;9.848;2022-07-01T04:46:44;2.60;;;1.13;;
40837;SDS011;29632;49.168;9.848;2022-07-01T04:49:10;2.03;;;0.70;;
40837;SDS011;29632;49.168;9.848;2022-07-01T04:51:36;1.77;;;0.60;;
40837;SDS011;29632;49.168;9.848;2022-07-01T04:54:02;1.33;;;0.67;;
40837;SDS011;29632;49.168;9.848;2022-07-01T04:56:29;0.80;;;0.50;;
40837;SDS011;29632;49.168;9.848;2022-07-01T04:58:56;1.20;;;0.90;;
40837;SDS011;29632;49.168;9.848;2022-07-01T05:01:22;2.30;;;0.60;;
40837;SDS011;29632;49.168;9.848;2022-07-01T05:03:48;1.13;;;0.70;;
40837;SDS011;29632;49.168;9.848;2022-07-01T05:06:14;2.17;;;1.10;;
40837;SDS011;29632;49.168;9.848;2022-07-01T05:08:40;1.70;;;1.20;;
40837;SDS011;29632;49.168;9.848;2022-07-01T05:11:06;1.10;;;0.80;;
40837;SDS011;29632;49.168;9.848;2022-07-01T05:13:32;2.87;;;1.20;;
40837;SDS011;29632;49.168;9.848;2022-07-01T05:15:58;1.33;;;1.10;;
40837;SDS011;29632;49.168;9.848;2022-07-01T05:18:25;2.80;;;1.33;;
40837;SDS011;29632;49.168;9.848;2022-07-01T05:21:10;4.83;;;1.77;;
40837;SDS011;29632;49.168;9.848;2022-07-01T05:23:54;1.80;;;1.57;;
40837;SDS011;29632;49.168;9.848;2022-07-01T05:26:20;2.77;;;1.97;;
40837;SDS011;29632;49.168;9.848;2022-07-01T05:28:46;2.97;;;2.13;;
40837;SDS011;29632;49.168;9.848;2022-07-01T05:31:12;3.00;;;1.83;;
40837;SDS011;29632;49.168;9.848;2022-07-01T05:33:38;3.13;;;2.03;;
40837;SDS011;29632;49.168;9.848;2022-07-01T05:36:04;2.90;;;1.87;;
40837;SDS011;29632;49.168;9.848;2022-07-01T05:38:30;3.03;;;1.60;;
40837;SDS011;29632;49.168;9.848;2022-07-01T05:40:56;3.00;;;1.93;;
40837;SDS011;29632;49.168;9.848;2022-07-01T05:43:22;3.27;;;1.90;;
40837;SDS011;29632;49.168;9.848;2022-07-01T05:45:47;2.13;;;1.80;;
40837;SDS011;29632;49.168;9.848;2022-07-01T05:48:13;3.17;;;2.23;;
40837;SDS011;29632;49.168;9.848;2022-07-01T05:50:39;2.97;;;2.03;;
40837;SDS011;29632;49.168;9.848;2022-07-01T05:53:05;3.03;;;2.23;;
40837;SDS011;29632;49.168;9.848;2022-07-01T05:55:32;3.60;;;2.37;;
40837;SDS011;29632;49.168;9.848;2022-07-01T05:57:58;2.70;;;1.60;;
40837;SDS011;29632;49.168;9.848;2022-07-01T06:00:26;3.13;;;2.00;;
40837;SDS011;29632;49.168;9.848;2022-07-01T06:02:52;2.67;;;1.90;;
40837;SDS011;29632;49.168;9.848;2022-07-01T06:05:18;4.10;;;1.60;;
40837;SDS011;29632;49.168;9.848;2022-07-01T06:07:44;3.23;;;1.80;;
40837;SDS011;29632;49.168;9.848;2022-07-01T06:10:10;2.20;;;1.30;;
40837;SDS011;29632;49.168;9.848;2022-07-01T06:12:38;4.17;;;1.87;;
40837;SDS011;29632;49.168;9.848;2022-07-01T06:15:05;2.27;;;1.70;;
40837;SDS011;29632;49.168;9.848;2022-07-01T06:17:33;3.83;;;1.80;;
40837;SDS011;29632;49.168;9.848;2022-07-01T06:20:00;3.20;;;1.70;;
40837;SDS011;29632;49.168;9.848;2022-07-01T06:22:27;2.33;;;1.50;;
40837;SDS011;29632;49.168;9.848;2022-07-01T06:24:52;2.33;;;1.60;;
40837;SDS011;29632;49.168;9.848;2022-07-01T06:27:18;2.17;;;1.50;;
40837;SDS011;29632;49.168;9.848;2022-07-01T06:29:44;5.73;;;2.30;;
40837;SDS011;29632;49.168;9.848;2022-07-01T06:32:10;3.03;;;1.70;;
40837;SDS011;29632;49.168;9.848;2022-07-01T06:34:36;3.00;;;1.50;;
40837;SDS011;29632;49.168;9.848;2022-07-01T06:37:03;3.43;;;1.53;;
40837;SDS011;29632;49.168;9.848;2022-07-01T06:39:29;2.13;;;1.50;;
40837;SDS011;29632;49.168;9.848;2022-07-01T06:41:56;3.10;;;1.57;;
40837;SDS011;29632;49.168;9.848;2022-07-01T06:44:22;1.73;;;1.27;;
40837;SDS011;29632;49.168;9.848;2022-07-01T06:46:47;1.73;;;1.30;;
40837;SDS011;29632;49.168;9.848;2022-07-01T06:49:13;3.47;;;1.23;;
40837;SDS011;29632;49.168;9.848;2022-07-01T06:51:40;1.50;;;1.37;;
40837;SDS011;29632;49.168;9.848;2022-07-01T06:54:05;2.97;;;1.63;;
40837;SDS011;29632;49.168;9.848;2022-07-01T06:56:31;5.73;;;2.10;;
40837;SDS011;29632;49.168;9.848;2022-07-01T06:58:57;1.83;;;1.43;;
40837;SDS011;29632;49.168;9.848;2022-07-01T07:01:23;1.60;;;1.30;;
40837;SDS011;29632;49.168;9.848;2022-07-01T07:03:49;1.67;;;1.20;;
40837;SDS011;29632;49.168;9.848;2022-07-01T07:06:14;1.63;;;1.37;;
40837;SDS011;29632;49.168;9.848;2022-07-01T07:08:40;2.33;;;1.27;;
40837;SDS011;29632;49.168;9.848;2022-07-01T07:11:06;1.33;;;1.03;;
40837;SDS011;29632;49.168;9.848;2022-07-01T07:13:34;2.20;;;1.40;;
40837;SDS011;29632;49.168;9.848;2022-07-01T07:16:03;5.03;;;2.03;;
40837;SDS011;29632;49.168;9.848;2022-07-01T07:18:29;1.63;;;1.27;;
40837;SDS011;29632;49.168;9.848;2022-07-01T07:20:55;2.00;;;1.47;;
40837;SDS011;29632;49.168;9.848;2022-07-01T07:23:20;2.73;;;1.40;;
40837;SDS011;29632;49.168;9.848;2022-07-01T07:25:47;2.43;;;1.07;;
40837;SDS011;29632;49.168;9.848;2022-07-01T07:28:13;3.17;;;1.23;;
40837;SDS011;29632;49.168;9.848;2022-07-01T07:30:39;1.63;;;1.47;;
40837;SDS011;29632;49.168;9.848;2022-07-01T07:33:04;2.17;;;1.23;;
40837;SDS011;29632;49.168;9.848;2022-07-01T07:35:30;2.47;;;1.30;;
40837;SDS011;29632;49.168;9.848;2022-07-01T07:37:56;5.67;;;2.33;;
40837;SDS011;29632;49.168;9.848;2022-07-01T07:40:22;1.10;;;1.00;;
40837;SDS011;29632;49.168;9.848;2022-07-01T07:42:48;1.27;;;0.90;;
40837;SDS011;29632;49.168;9.848;2022-07-01T07:45:14;2.40;;;1.23;;
40837;SDS011;29632;49.168;9.848;2022-07-01T07:47:45;1.80;;;1.37;;
40837;SDS011;29632;49.168;9.848;2022-07-01T07:50:16;1.30;;;1.10;;
40837;SDS011;29632;49.168;9.848;2022-07-01T07:52:42;2.13;;;1.23;;
40837;SDS011;29632;49.168;9.848;2022-07-01T07:55:09;2.03;;;1.47;;
40837;SDS011;29632;49.168;9.848;2022-07-01T07:57:36;2.43;;;1.20;;
40837;SDS011;29632;49.168;9.848;2022-07-01T08:00:03;1.70;;;1.20;;
40837;SDS011;29632;49.168;9.848;2022-07-01T08:02:31;1.57;;;1.20;;
40837;SDS011;29632;49.168;9.848;2022-07-01T08:04:57;2.10;;;1.10;;
40837;SDS011;29632;49.168;9.848;2022-07-01T08:07:22;2.00;;;1.43;;
40837;SDS011;29632;49.168;9.848;2022-07-01T08:09:48;1.63;;;1.30;;
40837;SDS011;29632;49.168;9.848;2022-07-01T08:12:14;1.80;;;1.30;;
40837;SDS011;29632;49.168;9.848;2022-07-01T08:14:41;1.20;;;1.10;;
40837;SDS011;29632;49.168;9.848;2022-07-01T08:17:07;2.53;;;1.37;;
40837;SDS011;29632;49.168;9.848;2022-07-01T08:19:33;2.57;;;1.03;;
40837;SDS011;29632;49.168;9.848;2022-07-01T08:21:59;1.43;;;1.10;;
40837;SDS011;29632;49.168;9.848;2022-07-01T08:24:24;1.70;;;1.40;;
40837;SDS011;29632;49.168;9.848;2022-07-01T08:26:50;2.00;;;1.33;;
40837;SDS011;29632;49.168;9.848;2022-07-01T08:29:16;1.53;;;1.10;;
40837;SDS011;29632;49.168;9.848;2022-07-01T08:31:42;2.03;;;1.20;;
40837;SDS011;29632;49.168;9.848;2022-07-01T08:34:07;2.60;;;1.50;;
40837;SDS011;29632;49.168;9.848;2022-07-01T08:36:34;1.50;;;1.10;;
40837;SDS011;29632;49.168;9.848;2022-07-01T08:39:00;2.17;;;1.60;;
40837;SDS011;29632;49.168;9.848;2022-07-01T08:41:26;1.80;;;1.30;;
40837;SDS011;29632;49.168;9.848;2022-07-01T08:43:52;2.20;;;1.33;;
40837;SDS011;29632;49.168;9.848;2022-07-01T08:46:18;3.77;;;1.47;;
40837;SDS011;29632;49.168;9.848;2022-07-01T08:48:44;1.07;;;0.93;;
40837;SDS011;29632;49.168;9.848;2022-07-01T08:51:10;1.30;;;1.10;;
40837;SDS011;29632;49.168;9.848;2022-07-01T08:53:37;4.10;;;1.40;;
40837;SDS011;29632;49.168;9.848;2022-07-01T08:56:03;1.73;;;1.30;;
40837;SDS011;29632;49.168;9.848;2022-07-01T08:58:49;1.50;;;1.27;;
40837;SDS011;29632;49.168;9.848;2022-07-01T09:01:22;2.67;;;1.40;;
40837;SDS011;29632;49.168;9.848;2022-07-01T09:03:51;2.20;;;1.30;;
40837;SDS011;29632;49.168;9.848;2022-07-01T09:06:36;1.40;;;1.30;;
40837;SDS011;29632;49.168;9.848;2022-07-01T09:09:16;1.60;;;1.20;;
40837;SDS011;29632;49.168;9.848;2022-07-01T09:11:53;2.57;;;1.43;;
40837;SDS011;29632;49.168;9.848;2022-07-01T09:14:21;2.47;;;1.60;;
40837;SDS011;29632;49.168;9.848;2022-07-01T09:16:57;1.57;;;1.30;;
40837;SDS011;29632;49.168;9.848;2022-07-01T09:19:35;1.67;;;1.33;;
40837;SDS011;29632;49.168;9.848;2022-07-01T09:22:03;2.17;;;1.53;;
40837;SDS011;29632;49.168;9.848;2022-07-01T09:27:02;2.30;;;1.67;;
40837;SDS011;29632;49.168;9.848;2022-07-01T09:29:38;2.40;;;1.70;;
40837;SDS011;29632;49.168;9.848;2022-07-01T09:32:16;2.20;;;1.47;;
40837;SDS011;29632;49.168;9.848;2022-07-01T09:34:46;1.40;;;1.30;;
40837;SDS011;29632;49.168;9.848;2022-07-01T09:37:21;2.03;;;1.43;;
40837;SDS011;29632;49.168;9.848;2022-07-01T09:39:52;1.70;;;1.17;;
40837;SDS011;29632;49.168;9.848;2022-07-01T09:42:21;2.17;;;1.27;;
40837;SDS011;29632;49.168;9.848;2022-07-01T09:44:53;1.13;;;1.03;;
40837;SDS011;29632;49.168;9.848;2022-07-01T09:47:32;1.20;;;1.10;;
40837;SDS011;29632;49.168;9.848;2022-07-01T09:50:01;2.90;;;1.30;;
40837;SDS011;29632;49.168;9.848;2022-07-01T09:52:29;2.30;;;1.20;;
40837;SDS011;29632;49.168;9.848;2022-07-01T09:54:54;1.70;;;1.30;;
40837;SDS011;29632;49.168;9.848;2022-07-01T09:57:21;2.20;;;1.33;;
40837;SDS011;29632;49.168;9.848;2022-07-01T09:59:47;1.73;;;1.20;;
40837;SDS011;29632;49.168;9.848;2022-07-01T10:02:15;2.70;;;1.53;;
40837;SDS011;29632;49.168;9.848;2022-07-01T10:04:49;1.75;;;1.27;;
40837;SDS011;29632;49.168;9.848;2022-07-01T10:07:36;2.67;;;1.47;;
40837;SDS011;29632;49.168;9.848;2022-07-01T10:13:12;1.40;;;1.13;;
40837;SDS011;29632;49.168;9.848;2022-07-01T10:15:41;1.63;;;1.27;;
40837;SDS011;29632;49.168;9.848;2022-07-01T10:18:22;1.90;;;1.20;;
40837;SDS011;29632;49.168;9.848;2022-07-01T10:20:51;1.93;;;1.50;;
40837;SDS011;29632;49.168;9.848;2022-07-01T10:23:19;1.80;;;1.30;;
40837;SDS011;29632;49.168;9.848;2022-07-01T10:25:50;2.30;;;1.50;;
40837;SDS011;29632;49.168;9.848;2022-07-01T10:30:58;2.27;;;1.37;;
40837;SDS011;29632;49.168;9.848;2022-07-01T10:36:34;2.63;;;1.80;;
40837;SDS011;29632;49.168;9.848;2022-07-01T10:41:27;2.27;;;1.53;;
40837;SDS011;29632;49.168;9.848;2022-07-01T10:44:02;1.97;;;1.63;;
40837;SDS011;29632;49.168;9.848;2022-07-01T10:59:48;2.20;;;1.70;;
40837;SDS011;29632;49.168;9.848;2022-07-01T11:02:20;1.70;;;1.60;;
40837;SDS011;29632;49.168;9.848;2022-07-01T11:05:04;2.47;;;1.60;;
40837;SDS011;29632;49.168;9.848;2022-07-01T11:07:38;1.35;;;1.20;;
40837;SDS011;29632;49.168;9.848;2022-07-01T11:10:10;2.10;;;1.30;;
40837;SDS011;29632;49.168;9.848;2022-07-01T11:12:40;2.27;;;1.47;;
40837;SDS011;29632;49.168;9.848;2022-07-01T11:15:09;2.70;;;1.60;;
40837;SDS011;29632;49.168;9.848;2022-07-01T11:17:35;2.43;;;2.00;;
40837;SDS011;29632;49.168;9.848;2022-07-01T11:20:09;2.70;;;2.00;;
40837;SDS011;29632;49.168;9.848;2022-07-01T11:22:35;2.70;;;1.80;;
40837;SDS011;29632;49.168;9.848;2022-07-01T11:25:02;2.10;;;1.57;;
40837;SDS011;29632;49.168;9.848;2022-07-01T11:27:32;3.80;;;2.00;;
40837;SDS011;29632;49.168;9.848;2022-07-01T11:29:59;2.13;;;1.63;;
40837;SDS011;29632;49.168;9.848;2022-07-01T11:32:35;2.63;;;2.03;;
40837;SDS011;29632;49.168;9.848;2022-07-01T11:35:07;2.20;;;1.80;;
40837;SDS011;29632;49.168;9.848;2022-07-01T11:40:53;2.47;;;1.53;;
40837;SDS011;29632;49.168;9.848;2022-07-01T11:43:39;1.97;;;1.60;;
40837;SDS011;29632;49.168;9.848;2022-07-01T11:46:06;4.00;;;1.57;;
40837;SDS011;29632;49.168;9.848;2022-07-01T11:48:38;2.40;;;1.83;;
40837;SDS011;29632;49.168;9.848;2022-07-01T11:51:11;2.67;;;2.03;;
40837;SDS011;29632;49.168;9.848;2022-07-01T11:53:43;2.50;;;2.10;;
40837;SDS011;29632;49.168;9.848;2022-07-01T11:56:11;2.92;;;1.77;;
40837;SDS011;29632;49.168;9.848;2022-07-01T11:58:45;3.33;;;2.07;;
40837;SDS011;29632;49.168;9.848;2022-07-01T12:03:58;2.97;;;2.20;;
40837;SDS011;29632;49.168;9.848;2022-07-01T12:06:27;3.73;;;1.90;;
40837;SDS011;29632;49.168;9.848;2022-07-01T12:08:54;2.33;;;1.50;;
40837;SDS011;29632;49.168;9.848;2022-07-01T12:11:22;2.40;;;1.93;;
40837;SDS011;29632;49.168;9.848;2022-07-01T12:13:50;2.90;;;1.87;;
40837;SDS011;29632;49.168;9.848;2022-07-01T12:16:17;2.43;;;1.77;;
40837;SDS011;29632;49.168;9.848;2022-07-01T12:19:17;2.80;;;1.70;;
40837;SDS011;29632;49.168;9.848;2022-07-01T12:21:51;3.57;;;1.80;;
40837;SDS011;29632;49.168;9.848;2022-07-01T12:24:19;2.30;;;1.70;;
40837;SDS011;29632;49.168;9.848;2022-07-01T12:29:23;2.80;;;1.77;;
40837;SDS011;29632;49.168;9.848;2022-07-01T12:34:47;2.57;;;1.70;;
40837;SDS011;29632;49.168;9.848;2022-07-01T12:39:59;3.97;;;1.63;;
40837;SDS011;29632;49.168;9.848;2022-07-01T12:42:49;1.93;;;1.77;;
40837;SDS011;29632;49.168;9.848;2022-07-01T12:45:16;1.73;;;1.40;;
40837;SDS011;29632;49.168;9.848;2022-07-01T12:47:51;1.97;;;1.47;;
40837;SDS011;29632;49.168;9.848;2022-07-01T12:50:23;1.40;;;1.27;;
40837;SDS011;29632;49.168;9.848;2022-07-01T12:53:04;1.73;;;1.37;;
40837;SDS011;29632;49.168;9.848;2022-07-01T12:55:43;1.57;;;1.20;;
40837;SDS011;29632;49.168;9.848;2022-07-01T12:58:12;1.80;;;1.10;;
40837;SDS011;29632;49.168;9.848;2022-07-01T13:00:45;2.00;;;1.10;;
40837;SDS011;29632;49.168;9.848;2022-07-01T13:03:13;2.70;;;1.40;;
40837;SDS011;29632;49.168;9.848;2022-07-01T13:05:43;5.88;;;1.15;;
40837;SDS011;29632;49.168;9.848;2022-07-01T13:08:09;1.43;;;1.10;;
40837;SDS011;29632;49.168;9.848;2022-07-01T13:10:35;2.53;;;1.13;;
40837;SDS011;29632;49.168;9.848;2022-07-01T13:13:02;1.63;;;1.07;;
40837;SDS011;29632;49.168;9.848;2022-07-01T13:15:29;2.70;;;1.33;;
40837;SDS011;29632;49.168;9.848;2022-07-01T13:17:55;1.60;;;1.20;;
40837;SDS011;29632;49.168;9.848;2022-07-01T13:20:21;2.43;;;1.40;;
40837;SDS011;29632;49.168;9.848;2022-07-01T13:22:47;1.80;;;1.30;;
40837;SDS011;29632;49.168;9.848;2022-07-01T13:25:13;1.10;;;1.00;;
40837;SDS011;29632;49.168;9.848;2022-07-01T13:27:40;2.10;;;1.03;;
40837;SDS011;29632;49.168;9.848;2022-07-01T13:30:08;1.43;;;1.03;;
40837;SDS011;29632;49.168;9.848;2022-07-01T13:32:35;1.70;;;1.07;;
40837;SDS011;29632;49.168;9.848;2022-07-01T13:35:02;2.10;;;1.40;;
40837;SDS011;29632;49.168;9.848;2022-07-01T13:37:29;4.17;;;1.10;;
40837;SDS011;29632;49.168;9.848;2022-07-01T13:39:55;3.33;;;1.00;;
40837;SDS011;29632;49.168;9.848;2022-07-01T13:42:21;2.13;;;1.07;;
40837;SDS011;29632;49.168;9.848;2022-07-01T13:44:47;2.57;;;1.40;;
40837;SDS011;29632;49.168;9.848;2022-07-01T13:47:15;1.67;;;1.37;;
40837;SDS011;29632;49.168;9.848;2022-07-01T13:49:41;2.87;;;1.53;;
40837;SDS011;29632;49.168;9.848;2022-07-01T13:52:08;7.20;;;6.50;;
40837;SDS011;29632;49.168;9.848;2022-07-01T13:54:35;12.37;;;11.53;;
40837;SDS011;29632;49.168;9.848;2022-07-01T13:57:01;7.27;;;6.77;;
40837;SDS011;29632;49.168;9.848;2022-07-01T13:59:27;3.67;;;3.10;;
40837;SDS011;29632;49.168;9.848;2022-07-01T14:01:52;1.60;;;1.50;;
40837;SDS011;29632;49.168;9.848;2022-07-01T14:04:18;2.10;;;1.37;;
40837;SDS011;29632;49.168;9.848;2022-07-01T14:06:44;1.90;;;1.10;;
40837;SDS011;29632;49.168;9.848;2022-07-01T14:09:10;3.27;;;1.20;;
40837;SDS011;29632;49.168;9.848;2022-07-01T14:11:36;1.73;;;1.20;;
40837;SDS011;29632;49.168;9.848;2022-07-01T14:14:02;1.10;;;0.97;;
40837;SDS011;29632;49.168;9.848;2022-07-01T14:16:28;1.33;;;0.70;;
40837;SDS011;29632;49.168;9.848;2022-07-01T14:18:55;1.23;;;0.90;;
40837;SDS011;29632;49.168;9.848;2022-07-01T14:21:21;3.43;;;1.63;;
40837;SDS011;29632;49.168;9.848;2022-07-01T14:23:48;2.97;;;2.03;;
40837;SDS011;29632;49.168;9.848;2022-07-01T14:26:14;2.97;;;1.47;;
40837;SDS011;29632;49.168;9.848;2022-07-01T14:28:40;2.13;;;0.70;;
40837;SDS011;29632;49.168;9.848;2022-07-01T14:31:06;0.93;;;0.70;;
40837;SDS011;29632;49.168;9.848;2022-07-01T14:33:32;0.80;;;0.70;;
40837;SDS011;29632;49.168;9.848;2022-07-01T14:35:58;6.67;;;6.17;;
40837;SDS011;29632;49.168;9.848;2022-07-01T14:38:24;3.00;;;2.70;;
40837;SDS011;29632;49.168;9.848;2022-07-01T14:40:49;1.53;;;1.30;;
40837;SDS011;29632;49.168;9.848;2022-07-01T14:43:15;2.43;;;2.00;;
40837;SDS011;29632;49.168;9.848;2022-07-01T14:45:41;2.13;;;1.40;;
40837;SDS011;29632;49.168;9.848;2022-07-01T14:48:07;2.67;;;1.07;;
40837;SDS011;29632;49.168;9.848;2022-07-01T14:50:34;0.77;;;0.70;;
40837;SDS011;29632;49.168;9.848;2022-07-01T14:53:00;1.17;;;0.77;;
40837;SDS011;29632;49.168;9.848;2022-07-01T14:55:30;0.90;;;0.60;;
40837;SDS011;29632;49.168;9.848;2022-07-01T14:57:56;1.37;;;0.70;;
40837;SDS011;29632;49.168;9.848;2022-07-01T15:00:22;2.47;;;0.60;;
40837;SDS011;29632;49.168;9.848;2022-07-01T15:02:47;4.60;;;4.30;;
40837;SDS011;29632;49.168;9.848;2022-07-01T15:05:13;6.67;;;6.07;;
40837;SDS011;29632;49.168;9.848;2022-07-01T15:07:40;3.67;;;3.47;;
40837;SDS011;29632;49.168;9.848;2022-07-01T15:10:07;4.17;;;2.00;;
40837;SDS011;29632;49.168;9.848;2022-07-01T15:12:33;1.27;;;1.17;;
40837;SDS011;29632;49.168;9.848;2022-07-01T15:14:59;1.77;;;1.30;;
40837;SDS011;29632;49.168;9.848;2022-07-01T15:17:25;0.93;;;0.80;;
40837;SDS011;29632;49.168;9.848;2022-07-01T15:19:52;1.33;;;1.00;;
40837;SDS011;29632;49.168;9.848;2022-07-01T15:22:18;0.70;;;0.70;;
40837;SDS011;29632;49.168;9.848;2022-07-01T15:24:44;1.43;;;0.70;;
40837;SDS011;29632;49.168;9.848;2022-07-01T15:27:10;1.73;;;0.70;;
40837;SDS011;29632;49.168;9.848;2022-07-01T15:29:36;2.40;;;0.80;;
40837;SDS011;29632;49.168;9.848;2022-07-01T15:32:03;0.87;;;0.77;;
40837;SDS011;29632;49.168;9.848;2022-07-01T15:34:30;2.00;;;1.00;;
40837;SDS011;29632;49.168;9.848;2022-07-01T15:36:56;0.83;;;0.70;;